sensor_id;sensor_type;location;lat;lon;timestamp;pressure;altitude;pressure_sealevel;temperature;humidity
73600;BME280;61877;48.246;9.220;2023-02-19T00:01:24;94676.78;;;5.32;91.29
73600;BME280;61877;48.246;9.220;2023-02-19T00:03:54;94669.59;;;5.32;91.24
73600;BME280;61877;48.246;9.220;2023-02-19T00:06:21;94672.72;;;5.34;91.26
73600;BME280;61877;48.246;9.220;2023-02-19T00:08:49;94662.09;;;5.34;91.50
73600;BME280;61877;48.246;9.220;2023-02-19T00:11:23;94661.03;;;5.35;91.67
73600;BME280;61877;48.246;9.220;2023-02-19T00:13:51;94659.94;;;5.36;91.50
73600;BME280;61877;48.246;9.220;2023-02-19T00:16:19;94655.59;;;5.59;92.20
73600;BME280;61877;48.246;9.220;2023-02-19T00:18:45;94654.50;;;5.60;90.91
73600;BME280;61877;48.246;9.220;2023-02-19T00:21:11;94654.69;;;5.63;91.11
73600;BME280;61877;48.246;9.220;2023-02-19T00:23:38;94649.88;;;5.65;90.41
73600;BME280;61877;48.246;9.220;2023-02-19T00:26:12;94652.84;;;5.64;90.68
73600;BME280;61877;48.246;9.220;2023-02-19T00:28:39;94648.00;;;5.66;90.57
73600;BME280;61877;48.246;9.220;2023-02-19T00:31:06;94650.94;;;5.64;90.79
73600;BME280;61877;48.246;9.220;2023-02-19T00:33:32;94658.16;;;5.64;90.46
73600;BME280;61877;48.246;9.220;2023-02-19T00:36:00;94650.66;;;5.66;90.66
73600;BME280;61877;48.246;9.220;2023-02-19T00:38:25;94650.19;;;5.64;90.77
73600;BME280;61877;48.246;9.220;2023-02-19T00:40:52;94646.13;;;5.66;90.75
73600;BME280;61877;48.246;9.220;2023-02-19T00:43:19;94647.22;;;5.65;90.41
73600;BME280;61877;48.246;9.220;2023-02-19T00:45:45;94642.28;;;5.59;90.58
73600;BME280;61877;48.246;9.220;2023-02-19T00:48:13;94650.34;;;5.54;90.46
73600;BME280;61877;48.246;9.220;2023-02-19T00:50:39;94641.34;;;5.50;90.76
73600;BME280;61877;48.246;9.220;2023-02-19T00:53:07;94631.31;;;5.47;90.44
73600;BME280;61877;48.246;9.220;2023-02-19T00:55:34;94633.03;;;5.38;90.72
73600;BME280;61877;48.246;9.220;2023-02-19T00:57:59;94636.59;;;5.33;90.97
73600;BME280;61877;48.246;9.220;2023-02-19T01:00:27;94629.28;;;5.25;90.90
73600;BME280;61877;48.246;9.220;2023-02-19T01:02:54;94636.16;;;5.26;91.52
73600;BME280;61877;48.246;9.220;2023-02-19T01:05:22;94633.28;;;5.22;91.87
73600;BME280;61877;48.246;9.220;2023-02-19T01:07:47;94635.72;;;5.19;92.09
73600;BME280;61877;48.246;9.220;2023-02-19T01:10:15;94630.41;;;5.19;92.09
73600;BME280;61877;48.246;9.220;2023-02-19T01:12:44;94632.00;;;5.20;92.19
73600;BME280;61877;48.246;9.220;2023-02-19T01:15:12;94634.28;;;5.26;92.15
73600;BME280;61877;48.246;9.220;2023-02-19T01:17:40;94635.41;;;5.39;92.25
73600;BME280;61877;48.246;9.220;2023-02-19T01:20:07;94626.66;;;5.39;91.83
73600;BME280;61877;48.246;9.220;2023-02-19T01:22:33;94622.59;;;5.41;92.46
73600;BME280;61877;48.246;9.220;2023-02-19T01:24:59;94621.94;;;5.49;92.51
73600;BME280;61877;48.246;9.220;2023-02-19T01:27:25;94611.22;;;5.54;92.33
73600;BME280;61877;48.246;9.220;2023-02-19T01:29:51;94622.47;;;5.65;92.18
73600;BME280;61877;48.246;9.220;2023-02-19T01:32:17;94616.66;;;5.76;92.07
73600;BME280;61877;48.246;9.220;2023-02-19T01:34:47;94613.84;;;5.86;91.63
73600;BME280;61877;48.246;9.220;2023-02-19T01:37:12;94617.41;;;5.95;91.56
73600;BME280;61877;48.246;9.220;2023-02-19T01:39:38;94600.47;;;6.05;91.01
73600;BME280;61877;48.246;9.220;2023-02-19T01:42:04;94602.13;;;6.14;90.63
73600;BME280;61877;48.246;9.220;2023-02-19T01:47:51;94580.31;;;6.39;89.18
73600;BME280;61877;48.246;9.220;2023-02-19T01:50:22;94574.84;;;6.58;87.82
73600;BME280;61877;48.246;9.220;2023-02-19T01:52:49;94579.25;;;6.63;87.33
73600;BME280;61877;48.246;9.220;2023-02-19T01:55:17;94580.34;;;6.62;87.47
73600;BME280;61877;48.246;9.220;2023-02-19T01:58:02;94579.88;;;6.60;87.04
73600;BME280;61877;48.246;9.220;2023-02-19T02:00:31;94606.63;;;6.54;87.33
73600;BME280;61877;48.246;9.220;2023-02-19T02:02:57;94601.19;;;6.60;87.06
73600;BME280;61877;48.246;9.220;2023-02-19T02:05:39;94602.94;;;6.78;86.21
73600;BME280;61877;48.246;9.220;2023-02-19T02:08:07;94596.75;;;6.91;85.47
73600;BME280;61877;48.246;9.220;2023-02-19T02:10:36;94588.78;;;7.13;83.71
73600;BME280;61877;48.246;9.220;2023-02-19T02:13:06;94586.03;;;7.04;84.03
73600;BME280;61877;48.246;9.220;2023-02-19T02:15:42;94585.06;;;7.00;84.29
73600;BME280;61877;48.246;9.220;2023-02-19T02:18:20;94579.84;;;6.95;84.60
73600;BME280;61877;48.246;9.220;2023-02-19T02:21:03;94571.66;;;6.92;85.06
73600;BME280;61877;48.246;9.220;2023-02-19T02:23:39;94582.75;;;6.85;85.06
73600;BME280;61877;48.246;9.220;2023-02-19T02:26:28;94585.59;;;6.89;85.37
73600;BME280;61877;48.246;9.220;2023-02-19T02:32:02;94578.88;;;6.91;84.44
73600;BME280;61877;48.246;9.220;2023-02-19T02:34:35;94579.19;;;6.90;84.91
73600;BME280;61877;48.246;9.220;2023-02-19T02:37:05;94577.59;;;6.89;84.87
73600;BME280;61877;48.246;9.220;2023-02-19T02:39:32;94573.66;;;6.86;85.40
73600;BME280;61877;48.246;9.220;2023-02-19T02:41:58;94569.72;;;6.84;85.92
73600;BME280;61877;48.246;9.220;2023-02-19T02:44:33;94576.44;;;6.81;86.03
73600;BME280;61877;48.246;9.220;2023-02-19T02:46:58;94575.66;;;6.81;85.91
73600;BME280;61877;48.246;9.220;2023-02-19T02:49:26;94583.16;;;6.79;85.95
73600;BME280;61877;48.246;9.220;2023-02-19T02:51:53;94581.91;;;6.76;86.37
73600;BME280;61877;48.246;9.220;2023-02-19T02:54:23;94587.84;;;6.73;86.84
73600;BME280;61877;48.246;9.220;2023-02-19T02:56:52;94583.88;;;6.71;86.90
73600;BME280;61877;48.246;9.220;2023-02-19T02:59:25;94586.03;;;6.69;86.99
73600;BME280;61877;48.246;9.220;2023-02-19T03:01:56;94570.34;;;6.67;86.95
73600;BME280;61877;48.246;9.220;2023-02-19T03:04:31;94580.91;;;6.72;86.32
73600;BME280;61877;48.246;9.220;2023-02-19T03:07:00;94571.84;;;6.73;86.25
73600;BME280;61877;48.246;9.220;2023-02-19T03:09:33;94567.97;;;6.79;85.86
73600;BME280;61877;48.246;9.220;2023-02-19T03:12:03;94570.13;;;6.77;85.61
73600;BME280;61877;48.246;9.220;2023-02-19T03:14:34;94567.91;;;6.93;84.80
73600;BME280;61877;48.246;9.220;2023-02-19T03:17:06;94569.72;;;7.06;83.91
73600;BME280;61877;48.246;9.220;2023-02-19T03:19:40;94559.69;;;7.55;80.70
73600;BME280;61877;48.246;9.220;2023-02-19T03:22:11;94557.78;;;7.86;79.05
73600;BME280;61877;48.246;9.220;2023-02-19T03:24:43;94546.69;;;8.02;78.27
73600;BME280;61877;48.246;9.220;2023-02-19T03:27:11;94542.16;;;8.11;78.05
73600;BME280;61877;48.246;9.220;2023-02-19T03:29:40;94533.69;;;8.17;77.42
73600;BME280;61877;48.246;9.220;2023-02-19T03:32:10;94524.22;;;8.11;77.88
73600;BME280;61877;48.246;9.220;2023-02-19T03:34:43;94511.78;;;7.98;78.63
73600;BME280;61877;48.246;9.220;2023-02-19T03:37:13;94512.88;;;7.97;78.64
73600;BME280;61877;48.246;9.220;2023-02-19T03:39:40;94539.28;;;7.99;78.50
73600;BME280;61877;48.246;9.220;2023-02-19T03:42:14;94537.72;;;8.06;78.09
73600;BME280;61877;48.246;9.220;2023-02-19T03:44:52;94558.03;;;8.07;78.07
73600;BME280;61877;48.246;9.220;2023-02-19T03:47:26;94540.53;;;8.01;78.23
73600;BME280;61877;48.246;9.220;2023-02-19T03:50:00;94539.88;;;7.87;78.83
73600;BME280;61877;48.246;9.220;2023-02-19T03:52:36;94556.22;;;7.85;78.98
73600;BME280;61877;48.246;9.220;2023-02-19T03:55:07;94553.59;;;7.94;78.69
73600;BME280;61877;48.246;9.220;2023-02-19T03:57:46;94550.41;;;7.92;78.51
73600;BME280;61877;48.246;9.220;2023-02-19T04:00:17;94548.97;;;7.86;78.74
73600;BME280;61877;48.246;9.220;2023-02-19T04:02:49;94553.22;;;7.87;78.87
73600;BME280;61877;48.246;9.220;2023-02-19T04:05:23;94562.47;;;7.81;79.23
73600;BME280;61877;48.246;9.220;2023-02-19T04:07:54;94558.09;;;7.85;79.01
73600;BME280;61877;48.246;9.220;2023-02-19T04:10:22;94561.03;;;7.75;79.43
73600;BME280;61877;48.246;9.220;2023-02-19T04:12:53;94564.97;;;7.77;79.49
73600;BME280;61877;48.246;9.220;2023-02-19T04:15:25;94558.34;;;7.75;79.97
73600;BME280;61877;48.246;9.220;2023-02-19T04:17:56;94563.88;;;7.78;79.64
73600;BME280;61877;48.246;9.220;2023-02-19T04:20:26;94574.34;;;7.97;78.85
73600;BME280;61877;48.246;9.220;2023-02-19T04:22:52;94567.56;;;8.00;78.99
73600;BME280;61877;48.246;9.220;2023-02-19T04:25:20;94573.72;;;8.00;78.58
73600;BME280;61877;48.246;9.220;2023-02-19T04:27:47;94567.56;;;8.00;78.55
73600;BME280;61877;48.246;9.220;2023-02-19T04:30:14;94573.91;;;8.12;78.49
73600;BME280;61877;48.246;9.220;2023-02-19T04:32:40;94567.59;;;8.08;78.82
73600;BME280;61877;48.246;9.220;2023-02-19T04:35:10;94574.69;;;8.13;78.97
73600;BME280;61877;48.246;9.220;2023-02-19T04:37:38;94571.09;;;8.17;78.97
73600;BME280;61877;48.246;9.220;2023-02-19T04:40:04;94578.94;;;8.14;79.37
73600;BME280;61877;48.246;9.220;2023-02-19T04:42:31;94570.75;;;8.10;79.90
73600;BME280;61877;48.246;9.220;2023-02-19T04:44:58;94578.28;;;8.08;80.12
73600;BME280;61877;48.246;9.220;2023-02-19T04:47:24;94581.63;;;8.14;81.04
73600;BME280;61877;48.246;9.220;2023-02-19T04:49:50;94578.91;;;8.05;81.33
73600;BME280;61877;48.246;9.220;2023-02-19T04:52:17;94577.81;;;8.06;81.31
73600;BME280;61877;48.246;9.220;2023-02-19T04:54:44;94584.41;;;8.00;81.57
73600;BME280;61877;48.246;9.220;2023-02-19T04:57:13;94587.06;;;8.00;81.44
73600;BME280;61877;48.246;9.220;2023-02-19T04:59:39;94584.75;;;8.07;81.02
73600;BME280;61877;48.246;9.220;2023-02-19T05:02:06;94589.47;;;8.10;80.88
73600;BME280;61877;48.246;9.220;2023-02-19T05:04:35;94586.78;;;8.10;81.11
73600;BME280;61877;48.246;9.220;2023-02-19T05:07:01;94590.09;;;8.07;81.40
73600;BME280;61877;48.246;9.220;2023-02-19T05:09:26;94603.88;;;8.01;82.03
73600;BME280;61877;48.246;9.220;2023-02-19T05:11:53;94595.56;;;8.02;82.48
73600;BME280;61877;48.246;9.220;2023-02-19T05:14:20;94599.75;;;7.95;82.86
73600;BME280;61877;48.246;9.220;2023-02-19T05:16:45;94594.25;;;7.91;83.38
73600;BME280;61877;48.246;9.220;2023-02-19T05:19:12;94591.13;;;7.89;83.73
73600;BME280;61877;48.246;9.220;2023-02-19T05:21:37;94595.00;;;7.83;84.60
73600;BME280;61877;48.246;9.220;2023-02-19T05:24:04;94604.50;;;7.67;85.85
73600;BME280;61877;48.246;9.220;2023-02-19T05:26:29;94612.25;;;7.77;85.68
73600;BME280;61877;48.246;9.220;2023-02-19T05:29:00;94602.31;;;7.69;86.25
73600;BME280;61877;48.246;9.220;2023-02-19T05:31:26;94604.31;;;7.63;86.50
73600;BME280;61877;48.246;9.220;2023-02-19T05:33:53;94606.63;;;7.56;87.04
73600;BME280;61877;48.246;9.220;2023-02-19T05:36:20;94614.22;;;7.63;87.84
73600;BME280;61877;48.246;9.220;2023-02-19T05:38:46;94613.88;;;7.56;87.88
73600;BME280;61877;48.246;9.220;2023-02-19T05:41:14;94621.53;;;7.49;88.41
73600;BME280;61877;48.246;9.220;2023-02-19T05:43:41;94626.44;;;7.55;88.66
73600;BME280;61877;48.246;9.220;2023-02-19T05:46:10;94631.72;;;7.47;88.96
73600;BME280;61877;48.246;9.220;2023-02-19T05:48:36;94628.06;;;7.43;89.55
73600;BME280;61877;48.246;9.220;2023-02-19T05:51:02;94626.13;;;7.35;90.53
73600;BME280;61877;48.246;9.220;2023-02-19T05:53:28;94625.47;;;7.29;90.96
73600;BME280;61877;48.246;9.220;2023-02-19T05:55:55;94633.59;;;7.24;91.33
73600;BME280;61877;48.246;9.220;2023-02-19T05:58:21;94631.03;;;7.19;91.77
73600;BME280;61877;48.246;9.220;2023-02-19T06:00:46;94623.94;;;7.15;92.11
73600;BME280;61877;48.246;9.220;2023-02-19T06:03:14;94632.84;;;7.10;92.79
73600;BME280;61877;48.246;9.220;2023-02-19T06:05:40;94628.91;;;7.08;92.82
73600;BME280;61877;48.246;9.220;2023-02-19T06:08:06;94627.00;;;7.08;93.08
73600;BME280;61877;48.246;9.220;2023-02-19T06:10:32;94650.84;;;7.05;93.73
73600;BME280;61877;48.246;9.220;2023-02-19T06:12:58;94650.25;;;7.08;93.43
73600;BME280;61877;48.246;9.220;2023-02-19T06:15:23;94650.06;;;7.04;93.37
73600;BME280;61877;48.246;9.220;2023-02-19T06:17:49;94652.84;;;6.99;93.92
73600;BME280;61877;48.246;9.220;2023-02-19T06:20:19;94650.47;;;6.98;94.55
73600;BME280;61877;48.246;9.220;2023-02-19T06:22:45;94653.75;;;6.95;94.75
73600;BME280;61877;48.246;9.220;2023-02-19T06:25:10;94649.19;;;6.95;94.76
73600;BME280;61877;48.246;9.220;2023-02-19T06:27:37;94653.63;;;7.00;94.38
73600;BME280;61877;48.246;9.220;2023-02-19T06:30:04;94651.25;;;6.98;94.77
73600;BME280;61877;48.246;9.220;2023-02-19T06:32:34;94653.16;;;6.98;94.65
73600;BME280;61877;48.246;9.220;2023-02-19T06:35:00;94655.59;;;7.08;93.58
73600;BME280;61877;48.246;9.220;2023-02-19T06:37:29;94667.72;;;7.14;92.69
73600;BME280;61877;48.246;9.220;2023-02-19T06:39:54;94673.25;;;7.17;92.83
73600;BME280;61877;48.246;9.220;2023-02-19T06:42:20;94689.06;;;7.14;92.42
73600;BME280;61877;48.246;9.220;2023-02-19T06:44:47;94684.94;;;7.30;90.10
73600;BME280;61877;48.246;9.220;2023-02-19T06:47:13;94686.63;;;7.39;88.47
73600;BME280;61877;48.246;9.220;2023-02-19T06:49:40;94693.63;;;7.35;88.72
73600;BME280;61877;48.246;9.220;2023-02-19T06:52:05;94703.50;;;7.35;88.55
73600;BME280;61877;48.246;9.220;2023-02-19T06:54:35;94699.69;;;7.27;88.09
73600;BME280;61877;48.246;9.220;2023-02-19T06:57:00;94706.00;;;7.31;88.25
73600;BME280;61877;48.246;9.220;2023-02-19T06:59:26;94725.47;;;7.32;87.90
73600;BME280;61877;48.246;9.220;2023-02-19T07:01:52;94732.22;;;7.29;87.77
73600;BME280;61877;48.246;9.220;2023-02-19T07:04:21;94728.25;;;7.27;88.19
73600;BME280;61877;48.246;9.220;2023-02-19T07:06:49;94728.78;;;7.15;88.37
73600;BME280;61877;48.246;9.220;2023-02-19T07:09:18;94738.66;;;7.15;89.35
73600;BME280;61877;48.246;9.220;2023-02-19T07:11:48;94740.56;;;7.14;88.69
73600;BME280;61877;48.246;9.220;2023-02-19T07:14:16;94747.75;;;7.14;89.16
73600;BME280;61877;48.246;9.220;2023-02-19T07:16:42;94752.59;;;7.12;88.54
73600;BME280;61877;48.246;9.220;2023-02-19T07:19:10;94741.94;;;6.98;87.71
73600;BME280;61877;48.246;9.220;2023-02-19T07:21:35;94767.03;;;7.11;88.49
73600;BME280;61877;48.246;9.220;2023-02-19T07:24:01;94770.88;;;7.05;86.93
73600;BME280;61877;48.246;9.220;2023-02-19T07:26:28;94775.94;;;7.06;87.04
73600;BME280;61877;48.246;9.220;2023-02-19T07:28:55;94775.66;;;6.94;86.90
73600;BME280;61877;48.246;9.220;2023-02-19T07:31:22;94776.91;;;6.97;87.92
73600;BME280;61877;48.246;9.220;2023-02-19T07:33:48;94781.19;;;6.98;88.30
73600;BME280;61877;48.246;9.220;2023-02-19T07:36:16;94776.91;;;6.97;87.61
73600;BME280;61877;48.246;9.220;2023-02-19T07:38:42;94788.19;;;6.94;88.13
73600;BME280;61877;48.246;9.220;2023-02-19T07:41:10;94786.63;;;6.93;88.22
73600;BME280;61877;48.246;9.220;2023-02-19T07:43:37;94792.72;;;6.93;87.81
73600;BME280;61877;48.246;9.220;2023-02-19T07:46:04;94789.28;;;6.93;86.44
73600;BME280;61877;48.246;9.220;2023-02-19T07:48:30;94786.13;;;6.91;87.29
73600;BME280;61877;48.246;9.220;2023-02-19T07:50:59;94796.47;;;6.92;87.60
73600;BME280;61877;48.246;9.220;2023-02-19T07:53:26;94800.31;;;7.00;87.83
73600;BME280;61877;48.246;9.220;2023-02-19T07:55:57;94808.91;;;6.97;86.32
73600;BME280;61877;48.246;9.220;2023-02-19T07:58:24;94813.56;;;7.05;86.30
73600;BME280;61877;48.246;9.220;2023-02-19T08:00:49;94820.28;;;7.02;85.16
73600;BME280;61877;48.246;9.220;2023-02-19T08:03:17;94817.63;;;7.02;84.92
73600;BME280;61877;48.246;9.220;2023-02-19T08:05:43;94824.22;;;7.05;85.18
73600;BME280;61877;48.246;9.220;2023-02-19T08:08:11;94836.50;;;7.19;84.55
73600;BME280;61877;48.246;9.220;2023-02-19T08:10:38;94834.13;;;7.18;82.96
73600;BME280;61877;48.246;9.220;2023-02-19T08:13:04;94830.34;;;7.32;82.20
73600;BME280;61877;48.246;9.220;2023-02-19T08:15:34;94840.22;;;7.45;81.69
73600;BME280;61877;48.246;9.220;2023-02-19T08:18:03;94830.91;;;7.56;80.85
73600;BME280;61877;48.246;9.220;2023-02-19T08:20:31;94831.91;;;7.60;80.54
73600;BME280;61877;48.246;9.220;2023-02-19T08:22:57;94826.41;;;7.79;80.83
73600;BME280;61877;48.246;9.220;2023-02-19T08:25:24;94835.88;;;7.85;79.57
73600;BME280;61877;48.246;9.220;2023-02-19T08:27:54;94831.41;;;7.45;79.52
73600;BME280;61877;48.246;9.220;2023-02-19T08:30:20;94842.09;;;7.45;79.35
73600;BME280;61877;48.246;9.220;2023-02-19T08:32:45;94836.31;;;7.65;79.26
73600;BME280;61877;48.246;9.220;2023-02-19T08:35:11;94835.81;;;7.63;78.06
73600;BME280;61877;48.246;9.220;2023-02-19T08:37:42;94837.00;;;7.70;77.67
73600;BME280;61877;48.246;9.220;2023-02-19T08:40:09;94841.16;;;7.76;77.65
73600;BME280;61877;48.246;9.220;2023-02-19T08:42:38;94852.91;;;7.89;77.89
73600;BME280;61877;48.246;9.220;2023-02-19T08:45:05;94852.91;;;7.89;76.92
73600;BME280;61877;48.246;9.220;2023-02-19T08:47:34;94858.16;;;8.03;76.68
73600;BME280;61877;48.246;9.220;2023-02-19T08:50:04;94857.81;;;7.96;76.55
73600;BME280;61877;48.246;9.220;2023-02-19T08:52:36;94851.69;;;7.95;75.95
73600;BME280;61877;48.246;9.220;2023-02-19T08:55:05;94852.19;;;7.97;75.88
73600;BME280;61877;48.246;9.220;2023-02-19T08:57:31;94841.88;;;8.26;75.63
73600;BME280;61877;48.246;9.220;2023-02-19T09:00:00;94845.34;;;8.27;76.02
73600;BME280;61877;48.246;9.220;2023-02-19T09:02:25;94843.50;;;8.14;75.39
73600;BME280;61877;48.246;9.220;2023-02-19T09:04:51;94859.69;;;7.95;74.99
73600;BME280;61877;48.246;9.220;2023-02-19T09:07:18;94859.19;;;7.93;75.48
73600;BME280;61877;48.246;9.220;2023-02-19T09:09:43;94869.34;;;7.82;75.99
73600;BME280;61877;48.246;9.220;2023-02-19T09:12:12;94877.25;;;7.88;76.14
73600;BME280;61877;48.246;9.220;2023-02-19T09:14:40;94870.66;;;7.58;76.55
73600;BME280;61877;48.246;9.220;2023-02-19T09:17:10;94877.59;;;7.59;77.10
73600;BME280;61877;48.246;9.220;2023-02-19T09:19:36;94879.44;;;7.72;76.51
73600;BME280;61877;48.246;9.220;2023-02-19T09:22:04;94892.09;;;7.66;76.57
73600;BME280;61877;48.246;9.220;2023-02-19T09:24:30;94881.78;;;7.87;75.96
73600;BME280;61877;48.246;9.220;2023-02-19T09:26:56;94883.84;;;7.90;75.36
73600;BME280;61877;48.246;9.220;2023-02-19T09:29:26;94894.44;;;7.95;75.63
73600;BME280;61877;48.246;9.220;2023-02-19T09:31:55;94888.97;;;8.00;74.52
73600;BME280;61877;48.246;9.220;2023-02-19T09:34:23;94888.47;;;7.98;74.24
73600;BME280;61877;48.246;9.220;2023-02-19T09:36:49;94898.47;;;7.93;74.13
73600;BME280;61877;48.246;9.220;2023-02-19T09:39:15;94900.38;;;7.92;74.95
73600;BME280;61877;48.246;9.220;2023-02-19T09:41:43;94898.03;;;7.77;74.86
73600;BME280;61877;48.246;9.220;2023-02-19T09:44:11;94910.69;;;7.85;75.42
73600;BME280;61877;48.246;9.220;2023-02-19T09:46:44;94911.09;;;7.65;75.51
73600;BME280;61877;48.246;9.220;2023-02-19T09:49:18;94913.47;;;7.53;75.56
73600;BME280;61877;48.246;9.220;2023-02-19T09:51:49;94903.59;;;7.67;76.59
73600;BME280;61877;48.246;9.220;2023-02-19T09:54:20;94906.66;;;7.47;76.95
73600;BME280;61877;48.246;9.220;2023-02-19T09:56:47;94911.28;;;7.68;76.13
73600;BME280;61877;48.246;9.220;2023-02-19T09:59:21;94915.63;;;7.78;75.42
73600;BME280;61877;48.246;9.220;2023-02-19T10:01:56;94918.19;;;7.83;75.28
73600;BME280;61877;48.246;9.220;2023-02-19T10:04:28;94911.78;;;7.84;74.61
73600;BME280;61877;48.246;9.220;2023-02-19T10:06:56;94910.59;;;7.76;75.33
73600;BME280;61877;48.246;9.220;2023-02-19T10:09:25;94909.09;;;7.84;74.78
73600;BME280;61877;48.246;9.220;2023-02-19T10:11:53;94912.09;;;7.69;75.79
73600;BME280;61877;48.246;9.220;2023-02-19T10:14:22;94912.84;;;7.83;75.33
73600;BME280;61877;48.246;9.220;2023-02-19T10:17:00;94906.44;;;7.84;74.47
73600;BME280;61877;48.246;9.220;2023-02-19T10:19:29;94901.66;;;7.95;75.63
73600;BME280;61877;48.246;9.220;2023-02-19T10:21:55;94910.25;;;7.92;74.84
73600;BME280;61877;48.246;9.220;2023-02-19T10:24:26;94910.81;;;8.16;73.92
73600;BME280;61877;48.246;9.220;2023-02-19T10:26:55;94917.22;;;8.15;74.13
73600;BME280;61877;48.246;9.220;2023-02-19T10:29:21;94923.25;;;8.20;74.47
73600;BME280;61877;48.246;9.220;2023-02-19T10:31:48;94918.16;;;8.10;74.84
73600;BME280;61877;48.246;9.220;2023-02-19T10:34:18;94922.38;;;8.11;75.89
73600;BME280;61877;48.246;9.220;2023-02-19T10:36:51;94924.97;;;8.03;75.96
73600;BME280;61877;48.246;9.220;2023-02-19T10:39:34;94919.97;;;7.88;76.42
73600;BME280;61877;48.246;9.220;2023-02-19T10:42:03;94922.50;;;8.06;76.21
73600;BME280;61877;48.246;9.220;2023-02-19T10:44:37;94929.31;;;8.12;75.57
73600;BME280;61877;48.246;9.220;2023-02-19T10:47:08;94925.63;;;8.35;74.00
73600;BME280;61877;48.246;9.220;2023-02-19T10:49:41;94928.44;;;8.03;73.74
73600;BME280;61877;48.246;9.220;2023-02-19T10:52:12;94930.47;;;8.33;74.12
73600;BME280;61877;48.246;9.220;2023-02-19T10:54:39;94932.97;;;8.16;73.32
73600;BME280;61877;48.246;9.220;2023-02-19T10:57:24;94929.97;;;8.31;73.39
73600;BME280;61877;48.246;9.220;2023-02-19T10:59:52;94934.50;;;8.44;72.17
73600;BME280;61877;48.246;9.220;2023-02-19T11:02:20;94929.47;;;8.29;74.22
73600;BME280;61877;48.246;9.220;2023-02-19T11:05:04;94928.41;;;8.17;74.07
73600;BME280;61877;48.246;9.220;2023-02-19T11:07:29;94941.91;;;7.98;75.10
73600;BME280;61877;48.246;9.220;2023-02-19T11:09:56;94942.09;;;8.02;76.00
73600;BME280;61877;48.246;9.220;2023-02-19T11:12:24;94944.03;;;7.88;75.44
73600;BME280;61877;48.246;9.220;2023-02-19T11:14:52;94944.88;;;8.10;76.24
73600;BME280;61877;48.246;9.220;2023-02-19T11:17:22;94955.63;;;8.19;74.30
73600;BME280;61877;48.246;9.220;2023-02-19T11:19:51;94934.94;;;8.24;74.09
73600;BME280;61877;48.246;9.220;2023-02-19T11:22:28;94936.84;;;8.24;75.03
73600;BME280;61877;48.246;9.220;2023-02-19T11:24:58;94953.59;;;8.02;73.62
73600;BME280;61877;48.246;9.220;2023-02-19T11:27:26;94934.06;;;8.15;74.37
73600;BME280;61877;48.246;9.220;2023-02-19T11:29:52;94924.13;;;8.29;74.67
73600;BME280;61877;48.246;9.220;2023-02-19T11:32:27;94922.88;;;8.13;75.34
73600;BME280;61877;48.246;9.220;2023-02-19T11:35:14;94916.72;;;8.26;73.69
73600;BME280;61877;48.246;9.220;2023-02-19T11:37:54;94899.00;;;8.52;73.93
73600;BME280;61877;48.246;9.220;2023-02-19T11:40:27;94903.38;;;8.13;74.39
73600;BME280;61877;48.246;9.220;2023-02-19T11:43:02;94900.34;;;8.41;74.38
73600;BME280;61877;48.246;9.220;2023-02-19T11:45:48;94907.69;;;8.36;75.14
73600;BME280;61877;48.246;9.220;2023-02-19T11:48:42;94911.66;;;8.38;75.00
73600;BME280;61877;48.246;9.220;2023-02-19T11:51:37;94915.13;;;8.39;74.79
73600;BME280;61877;48.246;9.220;2023-02-19T11:54:17;94903.34;;;8.62;74.85
73600;BME280;61877;48.246;9.220;2023-02-19T11:56:48;94901.19;;;8.28;74.69
73600;BME280;61877;48.246;9.220;2023-02-19T11:59:23;94901.91;;;8.64;73.20
73600;BME280;61877;48.246;9.220;2023-02-19T12:08:28;94918.44;;;8.44;77.29
73600;BME280;61877;48.246;9.220;2023-02-19T12:11:14;94920.78;;;8.37;77.30
73600;BME280;61877;48.246;9.220;2023-02-19T12:13:58;94927.44;;;8.48;79.54
73600;BME280;61877;48.246;9.220;2023-02-19T12:16:33;94931.47;;;8.59;77.55
73600;BME280;61877;48.246;9.220;2023-02-19T12:19:28;94928.78;;;8.59;78.12
73600;BME280;61877;48.246;9.220;2023-02-19T12:22:13;94927.88;;;8.42;79.38
73600;BME280;61877;48.246;9.220;2023-02-19T12:27:48;94919.56;;;8.43;79.64
73600;BME280;61877;48.246;9.220;2023-02-19T12:30:30;94912.13;;;8.40;79.23
73600;BME280;61877;48.246;9.220;2023-02-19T12:33:39;94915.88;;;8.39;79.33
73600;BME280;61877;48.246;9.220;2023-02-19T12:36:15;94934.41;;;8.36;78.96
73600;BME280;61877;48.246;9.220;2023-02-19T12:38:51;94939.41;;;8.15;81.21
73600;BME280;61877;48.246;9.220;2023-02-19T12:41:30;94942.88;;;8.16;81.82
73600;BME280;61877;48.246;9.220;2023-02-19T12:44:04;94954.03;;;8.18;80.74
73600;BME280;61877;48.246;9.220;2023-02-19T12:46:37;94940.53;;;8.01;81.71
73600;BME280;61877;48.246;9.220;2023-02-19T12:49:09;94940.00;;;8.12;81.75
73600;BME280;61877;48.246;9.220;2023-02-19T12:51:40;94946.25;;;8.08;81.38
73600;BME280;61877;48.246;9.220;2023-02-19T12:54:13;94950.00;;;8.07;81.82
73600;BME280;61877;48.246;9.220;2023-02-19T12:56:46;94943.69;;;8.03;82.39
73600;BME280;61877;48.246;9.220;2023-02-19T12:59:25;94950.84;;;7.94;83.07
73600;BME280;61877;48.246;9.220;2023-02-19T13:02:02;94944.81;;;7.74;82.60
73600;BME280;61877;48.246;9.220;2023-02-19T13:04:36;94939.75;;;7.73;82.04
73600;BME280;61877;48.246;9.220;2023-02-19T13:07:08;94944.22;;;7.37;81.65
73600;BME280;61877;48.246;9.220;2023-02-19T13:09:40;94938.69;;;7.47;83.01
73600;BME280;61877;48.246;9.220;2023-02-19T13:12:14;94944.19;;;7.91;81.25
73600;BME280;61877;48.246;9.220;2023-02-19T13:14:48;94940.84;;;7.99;81.08
73600;BME280;61877;48.246;9.220;2023-02-19T13:17:23;94941.06;;;7.89;82.08
73600;BME280;61877;48.246;9.220;2023-02-19T13:19:57;94928.00;;;7.74;81.51
73600;BME280;61877;48.246;9.220;2023-02-19T13:22:33;94920.19;;;7.77;82.70
73600;BME280;61877;48.246;9.220;2023-02-19T13:25:03;94917.41;;;7.82;81.84
73600;BME280;61877;48.246;9.220;2023-02-19T13:28:04;94924.34;;;7.70;84.36
73600;BME280;61877;48.246;9.220;2023-02-19T13:31:08;94918.41;;;7.73;84.52
73600;BME280;61877;48.246;9.220;2023-02-19T13:33:50;94917.22;;;7.65;84.57
73600;BME280;61877;48.246;9.220;2023-02-19T13:36:24;94915.47;;;7.61;81.78
73600;BME280;61877;48.246;9.220;2023-02-19T13:38:51;94918.91;;;7.48;84.98
73600;BME280;61877;48.246;9.220;2023-02-19T13:41:25;94923.94;;;7.63;82.45